createdAt,value
2022-08-25T00:00:53.174Z,4.34
2022-08-25T00:01:58.904Z,4.06
2022-08-25T00:03:00.610Z,4.00
2022-08-25T00:04:05.550Z,4.28
2022-08-25T00:05:07.667Z,3.81
2022-08-25T00:06:11.838Z,4.43
2022-08-25T00:07:13.530Z,4.27
2022-08-25T00:08:20.491Z,3.99
2022-08-25T00:09:27.790Z,3.98
2022-08-25T00:10:29.873Z,4.01
2022-08-25T00:11:34.271Z,3.88
2022-08-25T00:12:36.022Z,4.05
2022-08-25T00:13:41.098Z,4.25
2022-08-25T00:14:43.472Z,4.00
2022-08-25T00:15:46.674Z,3.67
2022-08-25T00:16:49.115Z,3.82
2022-08-25T00:17:51.603Z,3.92
2022-08-25T00:18:56.775Z,3.69
2022-08-25T00:19:58.452Z,3.50
2022-08-25T00:21:00.115Z,3.61
2022-08-25T00:22:03.235Z,3.72
2022-08-25T00:23:05.013Z,3.86
2022-08-25T00:24:11.929Z,3.51
2022-08-25T00:25:13.686Z,3.55
2022-08-25T00:26:15.952Z,3.26
2022-08-25T00:27:18.076Z,3.16
2022-08-25T00:28:19.751Z,3.09
2022-08-25T00:29:23.621Z,3.39
2022-08-25T00:30:25.500Z,3.18
2022-08-25T00:31:37.787Z,3.05
2022-08-25T00:32:40.848Z,3.48
2022-08-25T00:33:44.820Z,3.24
2022-08-25T00:34:46.836Z,2.92
2022-08-25T00:35:48.557Z,3.38
2022-08-25T00:36:51.874Z,3.65
2022-08-25T00:37:53.596Z,3.06
2022-08-25T00:38:56.268Z,3.48
2022-08-25T00:39:58.643Z,3.19
2022-08-25T00:41:06.236Z,3.00
2022-08-25T00:42:15.054Z,3.35
2022-08-25T00:43:18.761Z,3.07
2022-08-25T00:44:20.985Z,3.27
2022-08-25T00:45:23.388Z,3.32
2022-08-25T00:46:32.920Z,3.31
2022-08-25T00:47:34.978Z,3.13
2022-08-25T00:48:42.248Z,3.23
2022-08-25T00:49:49.662Z,3.62
2022-08-25T00:50:51.407Z,4.29
2022-08-25T00:52:05.990Z,4.19
2022-08-25T00:53:08.742Z,3.98
2022-08-25T00:54:23.410Z,3.61
2022-08-25T00:55:33.953Z,3.51
2022-08-25T00:56:36.601Z,3.58
2022-08-25T00:57:55.393Z,3.26
2022-08-25T00:58:59.273Z,3.45
2022-08-25T01:00:05.583Z,3.62
2022-08-25T01:01:07.759Z,3.42
2022-08-25T01:02:10.231Z,4.15
2022-08-25T01:03:17.422Z,3.48
2022-08-25T01:04:19.838Z,4.02
2022-08-25T01:05:21.604Z,4.07
2022-08-25T01:06:23.924Z,3.60
2022-08-25T01:07:25.766Z,3.95
2022-08-25T01:08:32.324Z,3.81
2022-08-25T01:09:35.285Z,3.41
2022-08-25T01:10:41.367Z,4.33
2022-08-25T01:11:45.506Z,3.51
2022-08-25T01:12:47.464Z,3.49
2022-08-25T01:13:56.492Z,3.77
2022-08-25T01:14:59.015Z,3.51
2022-08-25T01:16:02.011Z,3.67
2022-08-25T01:17:04.454Z,3.33
2022-08-25T01:18:06.359Z,3.03
2022-08-25T01:19:09.365Z,3.06
2022-08-25T01:20:19.900Z,2.73
2022-08-25T01:21:24.302Z,2.81
2022-08-25T01:22:26.771Z,2.83
2022-08-25T01:23:28.483Z,2.63
2022-08-25T01:24:47.154Z,3.06
2022-08-25T01:26:11.242Z,3.14
2022-08-25T01:27:13.444Z,2.81
2022-08-25T01:28:16.626Z,3.35
2022-08-25T01:29:20.977Z,2.72
2022-08-25T01:30:24.517Z,2.93
2022-08-25T01:31:28.081Z,2.91
2022-08-25T01:32:34.850Z,2.86
2022-08-25T01:33:36.504Z,3.21
2022-08-25T01:34:42.008Z,2.91
2022-08-25T01:35:44.081Z,2.78
2022-08-25T01:36:45.997Z,3.28
2022-08-25T01:37:48.246Z,2.64
2022-08-25T01:38:50.557Z,2.72
2022-08-25T01:39:52.239Z,2.98
2022-08-25T01:40:53.948Z,3.32
2022-08-25T01:41:58.701Z,3.09
2022-08-25T01:43:18.214Z,2.80
2022-08-25T01:44:19.953Z,3.15
2022-08-25T01:45:21.809Z,2.88
2022-08-25T01:46:23.603Z,3.01
2022-08-25T01:47:25.647Z,3.18
2022-08-25T01:48:27.325Z,3.02
2022-08-25T01:49:28.961Z,2.74
2022-08-25T01:50:30.817Z,2.89
2022-08-25T01:51:46.971Z,3.11
2022-08-25T01:52:51.852Z,2.97
2022-08-25T01:53:53.498Z,3.04
2022-08-25T01:54:55.542Z,3.00
2022-08-25T01:56:05.555Z,2.66
2022-08-25T01:57:11.509Z,2.82
2022-08-25T01:58:13.171Z,2.72
2022-08-25T01:59:23.843Z,3.06
2022-08-25T02:00:26.138Z,2.94
2022-08-25T02:01:28.573Z,2.56
2022-08-25T02:02:31.621Z,3.22
2022-08-25T02:03:42.375Z,2.96
2022-08-25T02:04:44.436Z,3.04
2022-08-25T02:05:48.070Z,3.06
2022-08-25T02:06:50.411Z,2.87
2022-08-25T02:07:52.146Z,3.18
2022-08-25T02:08:58.408Z,3.13
2022-08-25T02:10:00.694Z,2.78
2022-08-25T02:11:05.549Z,2.88
2022-08-25T02:12:09.530Z,3.22
2022-08-25T02:13:11.258Z,3.75
2022-08-25T02:14:18.092Z,3.30
2022-08-25T02:15:19.961Z,3.38
2022-08-25T02:16:28.327Z,2.97
2022-08-25T02:17:30.136Z,3.17
2022-08-25T02:18:31.895Z,3.33
2022-08-25T02:19:33.937Z,3.35
2022-08-25T02:20:35.655Z,3.64
2022-08-25T02:21:37.983Z,3.48
2022-08-25T02:22:39.680Z,3.65
2022-08-25T02:23:45.319Z,3.53
2022-08-25T02:24:48.033Z,3.42
2022-08-25T02:25:49.816Z,3.52
2022-08-25T02:26:51.605Z,3.61
2022-08-25T02:27:53.852Z,3.40
2022-08-25T02:28:56.288Z,3.39
2022-08-25T02:29:57.998Z,3.32
2022-08-25T02:31:01.635Z,3.03
2022-08-25T02:32:04.147Z,3.10
2022-08-25T02:33:06.490Z,3.48
2022-08-25T02:34:10.254Z,3.69
2022-08-25T02:35:12.837Z,3.06
2022-08-25T02:36:14.921Z,3.29
2022-08-25T02:37:17.023Z,3.69
2022-08-25T02:38:18.870Z,3.69
2022-08-25T02:39:20.581Z,3.33
2022-08-25T02:40:22.803Z,3.50
2022-08-25T02:41:31.087Z,3.69
2022-08-25T02:42:33.806Z,3.30
2022-08-25T02:43:35.537Z,3.59
2022-08-25T02:44:37.279Z,3.52
2022-08-25T02:45:39.291Z,3.72
2022-08-25T02:46:41.036Z,3.60
2022-08-25T02:47:42.994Z,3.71
2022-08-25T02:48:45.182Z,3.54
2022-08-25T02:49:46.852Z,3.18
2022-08-25T02:50:51.625Z,3.14
2022-08-25T02:51:54.521Z,3.34
2022-08-25T02:52:56.209Z,3.55
2022-08-25T02:54:00.080Z,3.48
2022-08-25T02:55:09.246Z,3.43
2022-08-25T02:56:12.659Z,3.26
2022-08-25T02:57:15.835Z,3.48
2022-08-25T02:58:17.521Z,3.61
2022-08-25T02:59:19.542Z,3.20
2022-08-25T03:00:21.510Z,3.30
2022-08-25T03:01:28.448Z,3.27
2022-08-25T03:02:30.810Z,3.29
2022-08-25T03:03:37.524Z,3.57
2022-08-25T03:04:41.086Z,3.86
2022-08-25T03:05:43.489Z,3.62
2022-08-25T03:06:45.760Z,3.12
2022-08-25T03:07:47.518Z,3.13
2022-08-25T03:08:50.562Z,3.36
2022-08-25T03:09:52.254Z,3.22
2022-08-25T03:10:53.998Z,3.22
2022-08-25T03:11:55.662Z,3.50
2022-08-25T03:12:57.737Z,3.54
2022-08-25T03:13:59.373Z,3.70
2022-08-25T03:15:01.634Z,3.72
2022-08-25T03:16:10.885Z,3.92
2022-08-25T03:17:13.254Z,3.84
2022-08-25T03:18:15.592Z,4.02
2022-08-25T03:19:18.091Z,3.89
2022-08-25T03:20:21.366Z,3.72
2022-08-25T03:21:23.132Z,3.64
2022-08-25T03:22:24.875Z,3.34
2022-08-25T03:23:29.665Z,3.43
2022-08-25T03:24:31.777Z,3.86
2022-08-25T03:25:52.579Z,3.58
2022-08-25T03:26:56.438Z,3.47
2022-08-25T03:27:58.289Z,3.39
2022-08-25T03:29:05.013Z,3.84
2022-08-25T03:30:07.609Z,3.81
2022-08-25T03:31:10.506Z,3.60
2022-08-25T03:32:12.239Z,3.79
2022-08-25T03:33:14.426Z,3.89
2022-08-25T03:34:17.971Z,4.25
2022-08-25T03:35:20.028Z,4.37
2022-08-25T03:36:22.050Z,3.69
2022-08-25T03:37:23.677Z,3.82
2022-08-25T03:38:26.121Z,4.67
2022-08-25T03:39:28.940Z,4.16
2022-08-25T03:40:30.799Z,3.91
2022-08-25T03:41:32.806Z,4.12
2022-08-25T03:42:35.094Z,3.88
2022-08-25T03:43:36.740Z,4.03
2022-08-25T03:44:38.377Z,4.29
2022-08-25T03:45:42.842Z,4.47
2022-08-25T03:46:47.711Z,4.46
2022-08-25T03:47:51.119Z,4.65
2022-08-25T03:48:53.869Z,4.13
2022-08-25T03:49:56.280Z,4.17
2022-08-25T03:50:58.000Z,4.21
2022-08-25T03:51:59.672Z,4.53
2022-08-25T03:53:02.341Z,4.31
2022-08-25T03:54:05.344Z,4.39
2022-08-25T03:55:11.689Z,4.62
2022-08-25T03:56:13.460Z,4.15
2022-08-25T03:57:15.876Z,4.58
2022-08-25T03:58:18.148Z,4.63
2022-08-25T03:59:20.281Z,4.53
2022-08-25T04:00:23.682Z,4.24
2022-08-25T04:01:26.061Z,4.48
2022-08-25T04:02:27.991Z,4.11
2022-08-25T04:03:29.713Z,3.83
2022-08-25T04:04:31.862Z,3.78
2022-08-25T04:05:33.665Z,3.78
2022-08-25T04:06:38.206Z,3.72
2022-08-25T04:07:40.222Z,3.66
2022-08-25T04:08:42.278Z,4.28
2022-08-25T04:09:44.137Z,3.44
2022-08-25T04:10:45.827Z,3.86
2022-08-25T04:11:47.669Z,3.97
2022-08-25T04:12:56.010Z,3.61
2022-08-25T04:13:59.194Z,3.86
2022-08-25T04:15:01.224Z,4.40
2022-08-25T04:16:10.240Z,3.83
2022-08-25T04:17:11.989Z,4.43
2022-08-25T04:18:14.191Z,4.48
2022-08-25T04:19:16.011Z,4.16
2022-08-25T04:20:18.865Z,4.69
2022-08-25T04:21:22.130Z,4.46
2022-08-25T04:22:24.205Z,4.42
2022-08-25T04:23:25.881Z,4.49
2022-08-25T04:24:27.578Z,4.42
2022-08-25T04:25:29.856Z,4.66
2022-08-25T04:26:36.410Z,4.75
2022-08-25T04:27:38.092Z,4.85
2022-08-25T04:28:40.020Z,4.79
2022-08-25T04:29:41.694Z,4.68
2022-08-25T04:30:43.802Z,5.16
2022-08-25T04:31:48.695Z,5.51
2022-08-25T04:32:50.953Z,4.79
2022-08-25T04:33:52.997Z,5.10
2022-08-25T04:34:54.694Z,5.41
2022-08-25T04:35:56.414Z,5.05
2022-08-25T04:37:03.590Z,6.03
2022-08-25T04:38:05.870Z,6.30
2022-08-25T04:39:07.988Z,5.73
2022-08-25T04:40:11.001Z,5.18
2022-08-25T04:41:15.495Z,5.96
2022-08-25T04:42:17.194Z,5.62
2022-08-25T04:43:18.833Z,5.26
2022-08-25T04:44:20.505Z,5.33
2022-08-25T04:45:22.151Z,6.17
2022-08-25T04:46:28.625Z,6.93
2022-08-25T04:47:31.294Z,6.50
2022-08-25T04:48:33.707Z,5.54
2022-08-25T04:49:37.092Z,5.75
2022-08-25T04:50:39.850Z,5.38
2022-08-25T04:51:42.748Z,6.01
2022-08-25T04:52:44.493Z,5.50
2022-08-25T04:53:46.968Z,5.53
2022-08-25T04:54:48.624Z,5.89
2022-08-25T04:55:50.331Z,5.56
2022-08-25T04:56:54.603Z,5.97
2022-08-25T04:57:59.645Z,5.48
2022-08-25T04:59:05.765Z,5.85
2022-08-25T05:00:08.176Z,5.51
2022-08-25T05:01:15.867Z,4.98
2022-08-25T05:02:17.668Z,5.88
2022-08-25T05:03:19.337Z,5.46
2022-08-25T05:04:28.590Z,5.78
2022-08-25T05:05:32.669Z,5.65
2022-08-25T05:06:35.708Z,5.91
2022-08-25T05:07:37.342Z,6.12
2022-08-25T05:08:40.021Z,5.73
2022-08-25T05:09:41.877Z,5.86
2022-08-25T05:10:43.874Z,5.86
2022-08-25T05:11:45.665Z,5.86
2022-08-25T05:12:49.163Z,6.22
2022-08-25T05:13:52.933Z,5.42
2022-08-25T05:14:54.770Z,5.96
2022-08-25T05:16:00.280Z,5.19
2022-08-25T05:17:02.192Z,6.14
2022-08-25T05:18:04.732Z,5.94
2022-08-25T05:19:07.281Z,6.27
2022-08-25T05:20:09.434Z,6.18
2022-08-25T05:21:15.409Z,5.84
2022-08-25T05:22:17.198Z,5.70
2022-08-25T05:23:18.986Z,6.37
2022-08-25T05:24:22.053Z,5.78
2022-08-25T05:25:24.480Z,6.26
2022-08-25T05:26:30.742Z,5.60
2022-08-25T05:27:34.285Z,5.87
2022-08-25T05:28:35.937Z,5.71
2022-08-25T05:29:37.587Z,6.00
2022-08-25T05:30:41.282Z,5.74
2022-08-25T05:31:48.343Z,5.84
2022-08-25T05:32:52.329Z,5.90
2022-08-25T05:33:56.025Z,5.81
2022-08-25T05:34:57.694Z,5.94
2022-08-25T05:35:59.660Z,6.08
2022-08-25T05:37:03.315Z,5.59
2022-08-25T05:38:06.405Z,5.49
2022-08-25T05:39:08.155Z,5.49
2022-08-25T05:40:10.292Z,6.08
2022-08-25T05:41:17.997Z,6.41
2022-08-25T05:42:19.841Z,5.84
2022-08-25T05:43:21.551Z,6.28
2022-08-25T05:44:23.267Z,5.50
2022-08-25T05:45:25.095Z,5.53
2022-08-25T05:46:26.946Z,5.83
2022-08-25T05:47:28.638Z,5.07
2022-08-25T05:48:30.308Z,5.42
2022-08-25T05:49:31.964Z,5.96
2022-08-25T05:50:33.634Z,6.08
2022-08-25T05:51:35.365Z,5.79
2022-08-25T05:52:37.202Z,5.68
2022-08-25T05:53:42.226Z,5.45
2022-08-25T05:54:44.170Z,6.26
2022-08-25T05:55:45.990Z,5.48
2022-08-25T05:56:47.758Z,5.16
2022-08-25T05:57:49.775Z,5.70
2022-08-25T05:58:51.462Z,5.36
2022-08-25T05:59:53.246Z,5.60
2022-08-25T06:00:56.036Z,5.07
2022-08-25T06:02:16.478Z,5.59
2022-08-25T06:03:18.624Z,6.19
2022-08-25T06:04:22.457Z,6.17
2022-08-25T06:05:24.148Z,5.95
2022-08-25T06:06:26.257Z,6.08
2022-08-25T06:07:28.307Z,6.12
2022-08-25T06:08:33.576Z,6.26
2022-08-25T06:09:38.697Z,6.01
2022-08-25T06:10:40.362Z,5.52
2022-08-25T06:11:42.842Z,6.27
2022-08-25T06:12:46.165Z,5.59
2022-08-25T06:13:48.157Z,5.88
2022-08-25T06:14:50.017Z,5.58
2022-08-25T06:15:57.773Z,5.03
2022-08-25T06:17:02.737Z,4.74
2022-08-25T06:18:04.698Z,5.54
2022-08-25T06:19:09.814Z,5.52
2022-08-25T06:20:22.418Z,5.86
2022-08-25T06:21:27.517Z,5.79
2022-08-25T06:22:29.211Z,5.84
2022-08-25T06:23:30.861Z,5.62
2022-08-25T06:24:33.297Z,5.88
2022-08-25T06:25:35.219Z,5.83
2022-08-25T06:26:37.514Z,5.42
2022-08-25T06:27:40.124Z,4.88
2022-08-25T06:28:41.806Z,5.72
2022-08-25T06:29:43.547Z,5.05
2022-08-25T06:30:46.145Z,4.99
2022-08-25T06:31:49.897Z,5.83
2022-08-25T06:32:52.406Z,5.57
2022-08-25T06:33:54.090Z,5.15
2022-08-25T06:34:55.941Z,5.54
2022-08-25T06:35:58.373Z,5.19
2022-08-25T06:37:00.075Z,5.93
2022-08-25T06:38:01.753Z,6.00
2022-08-25T06:39:04.512Z,5.60
2022-08-25T06:40:07.471Z,5.54
2022-08-25T06:41:13.007Z,4.98
2022-08-25T06:42:14.785Z,4.73
2022-08-25T06:43:16.514Z,4.94
2022-08-25T06:44:18.576Z,5.37
2022-08-25T06:45:21.021Z,5.33
2022-08-25T06:46:36.116Z,5.33
2022-08-25T06:47:38.639Z,5.80
2022-08-25T06:48:40.925Z,5.35
2022-08-25T06:49:43.968Z,5.12
2022-08-25T06:50:45.865Z,5.19
2022-08-25T06:51:48.852Z,4.83
2022-08-25T06:52:52.200Z,5.46
2022-08-25T06:53:54.566Z,5.45
2022-08-25T06:54:56.205Z,5.81
2022-08-25T06:56:02.257Z,5.45
2022-08-25T06:57:07.454Z,4.73
2022-08-25T06:58:11.132Z,5.26
2022-08-25T06:59:13.298Z,5.19
2022-08-25T07:00:15.339Z,5.30
2022-08-25T07:01:22.305Z,5.19
2022-08-25T07:02:24.076Z,4.94
2022-08-25T07:03:25.947Z,5.57
2022-08-25T07:04:27.928Z,5.70
2022-08-25T07:05:44.183Z,5.45
2022-08-25T07:06:46.839Z,5.82
2022-08-25T07:07:49.269Z,6.51
2022-08-25T07:08:51.304Z,5.50
2022-08-25T07:09:52.982Z,6.34
2022-08-25T07:10:55.243Z,5.89
2022-08-25T07:11:57.103Z,5.33
2022-08-25T07:12:58.750Z,5.80
2022-08-25T07:14:02.957Z,5.97
2022-08-25T07:15:21.198Z,5.90
2022-08-25T07:16:24.191Z,5.62
2022-08-25T07:17:32.001Z,6.50
2022-08-25T07:18:34.940Z,6.17
2022-08-25T07:19:36.902Z,6.32
2022-08-25T07:20:41.011Z,6.57
2022-08-25T07:21:45.412Z,6.55
2022-08-25T07:22:48.366Z,7.75
2022-08-25T07:23:50.092Z,6.62
2022-08-25T07:24:51.770Z,5.86
2022-08-25T07:25:54.538Z,5.83
2022-08-25T07:26:56.218Z,6.30
2022-08-25T07:27:59.006Z,6.97
2022-08-25T07:29:03.155Z,7.10
2022-08-25T07:30:07.748Z,7.50
2022-08-25T07:31:10.796Z,7.53
2022-08-25T07:32:12.589Z,6.78
2022-08-25T07:33:14.313Z,7.49
2022-08-25T07:34:34.593Z,7.63
2022-08-25T07:35:37.841Z,7.48
2022-08-25T07:36:39.850Z,7.97
2022-08-25T07:37:49.275Z,8.22
2022-08-25T07:38:51.753Z,7.48
2022-08-25T07:39:53.628Z,7.49
2022-08-25T07:41:04.553Z,8.05
2022-08-25T07:42:11.998Z,7.39
2022-08-25T07:43:14.115Z,7.57
2022-08-25T07:44:15.849Z,7.95
2022-08-25T07:45:20.690Z,7.40
2022-08-25T07:46:22.880Z,8.02
2022-08-25T07:47:24.622Z,8.51
2022-08-25T07:48:27.393Z,7.90
2022-08-25T07:49:35.929Z,8.11
2022-08-25T07:50:47.686Z,8.15
2022-08-25T07:52:05.360Z,7.32
2022-08-25T07:53:10.125Z,8.03
2022-08-25T07:54:12.302Z,7.60
2022-08-25T07:55:17.800Z,8.07
2022-08-25T07:56:20.665Z,8.03
2022-08-25T07:57:24.568Z,7.31
2022-08-25T07:58:26.357Z,6.94
2022-08-25T07:59:28.144Z,7.33
2022-08-25T08:00:33.395Z,8.59
2022-08-25T08:01:36.127Z,7.96
2022-08-25T08:02:41.484Z,7.92
2022-08-25T08:03:51.232Z,8.30
2022-08-25T08:04:53.761Z,8.08
2022-08-25T08:05:56.576Z,8.91
2022-08-25T08:06:58.229Z,8.40
2022-08-25T08:08:01.068Z,8.01
2022-08-25T08:09:03.630Z,7.56
2022-08-25T08:10:37.019Z,8.53
2022-08-25T08:11:37.071Z,8.29
2022-08-25T08:12:39.520Z,7.22
2022-08-25T08:13:41.575Z,7.50
2022-08-25T08:14:45.005Z,8.24
2022-08-25T08:15:48.376Z,8.61
2022-08-25T08:16:50.144Z,8.56
2022-08-25T08:17:51.850Z,7.90
2022-08-25T08:18:54.177Z,8.32
2022-08-25T08:19:55.890Z,8.62
2022-08-25T08:20:57.892Z,7.64
2022-08-25T08:22:02.221Z,7.97
2022-08-25T08:23:04.349Z,8.95
2022-08-25T08:24:14.781Z,8.18
2022-08-25T08:25:27.472Z,7.55
2022-08-25T08:26:55.292Z,8.02
2022-08-25T08:27:54.818Z,7.84
2022-08-25T08:28:56.863Z,7.42
2022-08-25T08:29:58.669Z,7.23
2022-08-25T08:31:00.411Z,7.82
2022-08-25T08:32:03.349Z,8.96
2022-08-25T08:33:10.203Z,8.25
2022-08-25T08:34:13.474Z,7.61
2022-08-25T08:35:17.637Z,7.36
2022-08-25T08:36:19.518Z,7.27
2022-08-25T08:37:22.963Z,7.21
2022-08-25T08:38:27.116Z,8.84
2022-08-25T08:39:30.421Z,8.34
2022-08-25T08:41:09.510Z,8.17
2022-08-25T08:42:19.841Z,8.95
2022-08-25T08:43:24.984Z,8.25
2022-08-25T08:44:44.137Z,8.08
2022-08-25T08:45:53.110Z,8.31
2022-08-25T08:47:29.849Z,7.89
2022-08-25T08:49:00.364Z,8.11
2022-08-25T08:50:28.157Z,8.76
2022-08-25T08:51:47.821Z,7.81
2022-08-25T08:52:56.406Z,7.91
2022-08-25T08:54:15.570Z,8.08
2022-08-25T08:56:05.818Z,8.24
2022-08-25T08:57:19.547Z,9.08
2022-08-25T08:58:26.177Z,8.51
2022-08-25T08:59:41.838Z,8.28
2022-08-25T09:00:52.614Z,7.41
2022-08-25T09:02:06.035Z,7.91
2022-08-25T09:03:39.928Z,8.37
2022-08-25T09:05:03.536Z,7.25
2022-08-25T09:06:20.306Z,8.12
2022-08-25T09:07:35.697Z,8.84
2022-08-25T09:08:39.472Z,8.21
2022-08-25T09:09:46.525Z,8.31
2022-08-25T09:10:58.545Z,8.67
2022-08-25T09:12:37.439Z,8.70
2022-08-25T09:14:30.478Z,8.31
2022-08-25T09:16:22.412Z,8.83
2022-08-25T09:18:23.453Z,9.02
2022-08-25T09:20:05.704Z,8.73
2022-08-25T09:22:04.682Z,8.93
2022-08-25T09:23:32.036Z,8.28
2022-08-25T09:24:51.852Z,9.00
2022-08-25T09:26:14.793Z,8.74
2022-08-25T09:27:35.771Z,7.90
2022-08-25T09:28:51.123Z,8.48
2022-08-25T09:30:05.337Z,9.47
2022-08-25T09:31:29.667Z,9.32
2022-08-25T09:32:38.931Z,8.39
2022-08-25T09:33:41.601Z,8.97
2022-08-25T09:34:47.467Z,9.13
2022-08-25T09:35:53.633Z,8.28
2022-08-25T09:36:56.359Z,8.94
2022-08-25T09:38:05.535Z,8.98
2022-08-25T09:39:07.852Z,7.58
2022-08-25T09:40:12.075Z,8.31
2022-08-25T09:41:18.170Z,9.15
2022-08-25T09:42:23.907Z,8.89
2022-08-25T09:43:28.721Z,9.28
2022-08-25T09:44:38.738Z,9.13
2022-08-25T09:45:48.217Z,9.45
2022-08-25T09:47:04.835Z,9.54
2022-08-25T09:48:26.922Z,10.00
2022-08-25T09:49:39.315Z,8.78
2022-08-25T09:50:46.618Z,8.82
2022-08-25T09:51:48.557Z,9.14
2022-08-25T09:52:54.443Z,8.18
2022-08-25T09:53:59.723Z,8.36
2022-08-25T09:55:04.384Z,8.67
2022-08-25T09:56:07.520Z,8.72
2022-08-25T09:57:30.186Z,9.00
2022-08-25T09:58:32.574Z,8.95
2022-08-25T09:59:37.375Z,8.35
2022-08-25T10:00:39.086Z,8.71
2022-08-25T10:01:54.578Z,9.51
2022-08-25T10:03:22.775Z,8.97
2022-08-25T10:04:40.081Z,8.93
2022-08-25T10:06:01.462Z,8.87
2022-08-25T10:07:22.162Z,8.92
2022-08-25T10:08:51.799Z,8.84
2022-08-25T10:10:04.231Z,9.39
2022-08-25T10:11:12.995Z,9.01
2022-08-25T10:12:44.716Z,9.28
2022-08-25T10:14:02.725Z,8.50
2022-08-25T10:15:33.392Z,8.19
2022-08-25T10:16:36.104Z,7.98
2022-08-25T10:17:38.511Z,8.05
2022-08-25T10:18:41.140Z,8.40
2022-08-25T10:19:44.579Z,9.50
2022-08-25T10:21:02.660Z,9.14
2022-08-25T10:22:12.027Z,9.27
2022-08-25T10:23:15.058Z,8.52
2022-08-25T10:24:17.241Z,9.43
2022-08-25T10:25:31.071Z,8.66
2022-08-25T10:26:47.942Z,8.13
2022-08-25T10:28:21.086Z,8.73
2022-08-25T10:29:28.928Z,9.45
2022-08-25T10:30:33.476Z,8.39
2022-08-25T10:31:51.888Z,8.16
2022-08-25T10:33:11.835Z,7.95
2022-08-25T10:34:35.839Z,8.34
2022-08-25T10:35:59.502Z,8.95
2022-08-25T10:37:26.779Z,8.20
2022-08-25T10:38:42.929Z,8.75
2022-08-25T10:39:57.969Z,8.44
2022-08-25T10:41:07.316Z,8.69
2022-08-25T10:42:13.099Z,8.46
2022-08-25T10:43:33.856Z,8.73
2022-08-25T10:45:23.402Z,8.79
2022-08-25T10:46:56.619Z,8.96
2022-08-25T10:48:33.243Z,8.93
2022-08-25T10:49:47.435Z,8.54
2022-08-25T10:50:54.406Z,8.51
2022-08-25T10:52:04.090Z,8.62
2022-08-25T10:53:46.369Z,8.47
2022-08-25T10:55:24.460Z,8.83
2022-08-25T10:56:40.951Z,9.10
2022-08-25T10:57:55.638Z,8.75
2022-08-25T10:59:20.457Z,8.72
2022-08-25T11:00:31.296Z,9.16
2022-08-25T11:02:13.985Z,8.29
2022-08-25T11:03:43.782Z,8.48
2022-08-25T11:05:12.539Z,8.25
2022-08-25T11:06:26.425Z,8.02
2022-08-25T11:07:35.677Z,8.63
2022-08-25T11:08:49.316Z,7.45
2022-08-25T11:09:57.762Z,8.12
2022-08-25T11:11:05.869Z,8.47
2022-08-25T11:12:16.420Z,9.48
2022-08-25T11:13:46.542Z,8.45
2022-08-25T11:14:57.142Z,8.21
2022-08-25T11:16:17.445Z,8.15
2022-08-25T11:17:51.595Z,7.94
2022-08-25T11:19:05.475Z,8.39
2022-08-25T11:20:15.618Z,8.37
2022-08-25T11:21:37.414Z,7.54
2022-08-25T11:22:55.978Z,8.05
2022-08-25T11:24:25.404Z,8.27
2022-08-25T11:25:38.023Z,8.17
2022-08-25T11:26:49.773Z,9.31
2022-08-25T11:28:03.746Z,7.65
2022-08-25T11:29:17.261Z,7.89
2022-08-25T11:30:20.134Z,8.29
2022-08-25T11:31:24.718Z,8.04
2022-08-25T11:32:26.813Z,8.36
2022-08-25T11:33:31.036Z,7.83
2022-08-25T11:34:37.164Z,7.49
2022-08-25T11:35:53.480Z,7.23
2022-08-25T11:37:01.151Z,7.16
2022-08-25T11:38:16.557Z,7.78
2022-08-25T11:39:59.909Z,7.62
2022-08-25T11:41:38.838Z,7.63
2022-08-25T11:43:04.082Z,7.63
2022-08-25T11:44:50.135Z,7.45
2022-08-25T11:46:23.640Z,8.21
2022-08-25T11:47:51.267Z,8.11
2022-08-25T11:49:14.525Z,7.35
2022-08-25T11:50:35.352Z,8.37
2022-08-25T11:51:45.183Z,7.68
2022-08-25T11:52:54.029Z,6.87
2022-08-25T11:54:20.826Z,7.76
2022-08-25T11:55:29.988Z,8.22
2022-08-25T11:56:40.049Z,8.01
2022-08-25T11:57:45.106Z,7.81
2022-08-25T11:58:50.817Z,7.52
2022-08-25T11:59:52.372Z,7.30
2022-08-25T12:00:55.854Z,7.63
2022-08-25T12:01:57.385Z,7.48
2022-08-25T12:03:01.612Z,7.63
2022-08-25T12:04:42.236Z,7.36
2022-08-25T12:06:12.225Z,7.47
2022-08-25T12:07:24.153Z,8.37
2022-08-25T12:08:47.982Z,7.95
2022-08-25T12:09:53.732Z,8.66
2022-08-25T12:11:04.338Z,8.23
2022-08-25T12:12:38.315Z,7.62
2022-08-25T12:13:48.531Z,7.43
2022-08-25T12:14:51.749Z,7.21
2022-08-25T12:15:57.433Z,7.26
2022-08-25T12:17:00.395Z,7.51
2022-08-25T12:18:45.998Z,7.97
2022-08-25T12:19:52.704Z,7.47
2022-08-25T12:20:55.104Z,8.07
2022-08-25T12:22:03.420Z,7.76
2022-08-25T12:23:06.943Z,7.76
2022-08-25T12:24:12.897Z,7.47
2022-08-25T12:25:34.112Z,7.76
2022-08-25T12:26:52.628Z,7.48
2022-08-25T12:28:16.029Z,6.98
2022-08-25T12:29:41.529Z,6.76
2022-08-25T12:30:57.200Z,7.17
2022-08-25T12:32:06.929Z,7.40
2022-08-25T12:33:23.488Z,7.65
2022-08-25T12:34:34.090Z,8.15
2022-08-25T12:35:55.745Z,7.51
2022-08-25T12:37:06.403Z,7.13
2022-08-25T12:38:16.890Z,7.25
2022-08-25T12:39:34.589Z,7.60
2022-08-25T12:40:43.142Z,7.85
2022-08-25T12:41:58.315Z,7.89
2022-08-25T12:43:12.309Z,8.12
2022-08-25T12:44:35.574Z,7.57
2022-08-25T12:45:42.321Z,7.52
2022-08-25T12:46:44.643Z,7.80
2022-08-25T12:47:49.013Z,7.14
2022-08-25T12:48:57.817Z,6.98
2022-08-25T12:50:29.881Z,6.76
2022-08-25T12:51:48.547Z,7.41
2022-08-25T12:52:53.476Z,6.94
2022-08-25T12:54:22.518Z,6.83
2022-08-25T12:55:27.021Z,7.41
2022-08-25T12:56:39.053Z,6.73
2022-08-25T12:57:46.150Z,6.40
2022-08-25T12:59:02.706Z,6.62
2022-08-25T13:00:20.257Z,6.50
2022-08-25T13:01:35.874Z,6.36
2022-08-25T13:03:09.983Z,6.41
2022-08-25T13:04:39.086Z,6.56
2022-08-25T13:06:02.125Z,6.75
2022-08-25T13:07:29.659Z,6.75
2022-08-25T13:08:48.063Z,6.63
2022-08-25T13:09:58.620Z,6.69
2022-08-25T13:11:04.958Z,7.11
2022-08-25T13:12:21.950Z,7.13
2022-08-25T13:13:49.033Z,6.64
2022-08-25T13:14:57.403Z,6.48
2022-08-25T13:16:25.715Z,6.95
2022-08-25T13:17:34.794Z,6.04
2022-08-25T13:18:39.157Z,6.29
2022-08-25T13:19:41.564Z,6.31
2022-08-25T13:20:44.241Z,6.21
2022-08-25T13:21:49.230Z,6.46
2022-08-25T13:22:57.738Z,6.82
2022-08-25T13:24:05.237Z,7.02
2022-08-25T13:25:15.907Z,6.67
2022-08-25T13:26:31.599Z,6.29
2022-08-25T13:27:37.268Z,6.14
2022-08-25T13:28:42.108Z,6.29
2022-08-25T13:29:55.813Z,6.42
2022-08-25T13:31:04.765Z,6.55
2022-08-25T13:32:13.050Z,6.62
2022-08-25T13:33:20.615Z,6.69
2022-08-25T13:34:34.980Z,6.65
2022-08-25T13:35:37.291Z,6.30
2022-08-25T13:37:03.709Z,6.70
2022-08-25T13:38:19.489Z,7.05
2022-08-25T13:39:45.503Z,6.86
2022-08-25T13:40:47.112Z,6.79
2022-08-25T13:41:55.441Z,7.17
2022-08-25T13:43:05.545Z,6.66
2022-08-25T13:44:07.455Z,6.42
2022-08-25T13:45:23.909Z,6.94
2022-08-25T13:46:25.729Z,6.86
2022-08-25T13:47:43.502Z,6.99
2022-08-25T13:48:49.384Z,6.74
2022-08-25T13:49:51.735Z,6.84
2022-08-25T13:51:23.746Z,6.63
2022-08-25T13:52:29.283Z,7.15
2022-08-25T13:53:31.733Z,7.01
2022-08-25T13:54:42.142Z,7.11
2022-08-25T13:55:57.195Z,6.50
2022-08-25T13:57:21.533Z,6.91
2022-08-25T13:58:39.084Z,6.90
2022-08-25T13:59:52.203Z,6.21
2022-08-25T14:01:31.447Z,6.09
2022-08-25T14:02:49.924Z,6.89
2022-08-25T14:03:54.339Z,6.69
2022-08-25T14:04:56.046Z,6.86
2022-08-25T14:06:05.662Z,6.85
2022-08-25T14:07:11.871Z,6.75
2022-08-25T14:08:36.349Z,6.48
2022-08-25T14:09:57.037Z,5.84
2022-08-25T14:11:30.913Z,5.88
2022-08-25T14:12:44.900Z,5.36
2022-08-25T14:13:46.905Z,5.51
2022-08-25T14:14:59.274Z,4.85
2022-08-25T14:16:09.153Z,5.41
2022-08-25T14:17:36.355Z,5.54
2022-08-25T14:18:58.842Z,5.07
2022-08-25T14:20:01.493Z,5.08
2022-08-25T14:21:11.095Z,5.25
2022-08-25T14:22:14.609Z,5.06
2022-08-25T14:23:22.168Z,4.97
2022-08-25T14:24:24.317Z,5.21
2022-08-25T14:25:31.265Z,4.96
2022-08-25T14:26:32.932Z,5.13
2022-08-25T14:27:38.960Z,4.92
2022-08-25T14:28:52.988Z,4.96
2022-08-25T14:29:54.682Z,5.03
2022-08-25T14:31:02.310Z,4.94
2022-08-25T14:32:07.102Z,5.27
2022-08-25T14:33:12.422Z,5.67
2022-08-25T14:34:22.219Z,4.89
2022-08-25T14:35:25.887Z,5.10
2022-08-25T14:36:30.705Z,4.87
2022-08-25T14:37:32.605Z,4.54
2022-08-25T14:38:38.623Z,4.89
2022-08-25T14:39:40.394Z,4.89
2022-08-25T14:40:46.109Z,5.18
2022-08-25T14:41:53.220Z,5.09
2022-08-25T14:42:55.617Z,5.20
2022-08-25T14:43:57.350Z,5.14
2022-08-25T14:44:59.014Z,4.93
2022-08-25T14:46:11.193Z,4.93
2022-08-25T14:47:19.479Z,5.09
2022-08-25T14:48:29.522Z,5.00
2022-08-25T14:49:38.545Z,4.81
2022-08-25T14:50:42.172Z,4.64
2022-08-25T14:51:44.255Z,4.74
2022-08-25T14:52:46.354Z,4.51
2022-08-25T14:53:48.168Z,4.70
2022-08-25T14:54:50.636Z,4.85
2022-08-25T14:55:59.353Z,4.91
2022-08-25T14:57:01.535Z,4.83
2022-08-25T14:58:03.242Z,4.79
2022-08-25T14:59:08.461Z,4.95
2022-08-25T15:00:11.460Z,4.26
2022-08-25T15:01:15.957Z,4.95
2022-08-25T15:02:21.965Z,5.29
2022-08-25T15:03:36.674Z,4.79
2022-08-25T15:04:39.218Z,4.79